Alba, Texas
Current Conditions -  °F | °C
As of 4:15 PM on Sunday 23 Nov 2014 (Local Time) from KJDD Reporting Station
Clear Clear  
Wind Chill: 24°   Ceiling: Unl
Heat Index: 24°   Visibility: 10mi
Dew Point:   Wind: 12mph
Humidity: 31%   Direction: 210°SSW
Pressure: 29.42"   Gusts: 20mph
Location:  32.79°N, 95.63°W
Report Text: KJDD 232215Z AUTO 21010G17KT 10SM CLR 24/06 A2942 RMK AO2
Loading
Personal Weather Stations






























Interactive Weather Map New forecast layout! Learn more

10-Day Weather Forecast

Advertisements
Track Severe Weather on mobile